createdAt,value
2018-02-16T00:01:39.336Z,36.05
2018-02-16T00:04:07.644Z,36.67
2018-02-16T00:06:34.247Z,32.88
2018-02-16T00:09:01.033Z,30.10
2018-02-16T00:11:27.530Z,30.45
2018-02-16T00:13:54.078Z,31.58
2018-02-16T00:16:20.615Z,33.92
2018-02-16T00:18:47.122Z,30.52
2018-02-16T00:21:13.559Z,33.28
2018-02-16T00:23:40.202Z,33.85
2018-02-16T00:26:06.732Z,33.90
2018-02-16T00:28:33.294Z,33.72
2018-02-16T00:30:59.898Z,33.60
2018-02-16T00:33:26.404Z,35.20
2018-02-16T00:35:53.561Z,33.35
2018-02-16T00:38:20.157Z,35.22
2018-02-16T00:40:46.747Z,32.72
2018-02-16T00:43:13.304Z,30.95
2018-02-16T00:45:39.788Z,29.05
2018-02-16T00:48:06.304Z,31.02
2018-02-16T00:50:32.778Z,24.87
2018-02-16T00:52:59.261Z,25.40
2018-02-16T00:55:25.811Z,27.02
2018-02-16T00:57:52.463Z,21.58
2018-02-16T01:00:18.998Z,20.25
2018-02-16T01:02:45.527Z,19.70
2018-02-16T01:05:12.031Z,16.15
2018-02-16T01:07:38.569Z,17.40
2018-02-16T01:10:05.076Z,16.92
2018-02-16T01:12:32.661Z,15.93
2018-02-16T01:14:59.167Z,16.20
2018-02-16T01:17:25.844Z,17.67
2018-02-16T01:19:52.953Z,15.52
2018-02-16T01:22:19.474Z,15.75
2018-02-16T01:24:46.078Z,14.70
2018-02-16T01:27:12.560Z,14.63
2018-02-16T01:29:39.048Z,14.95
2018-02-16T01:32:05.553Z,13.62
2018-02-16T01:34:32.030Z,13.88
2018-02-16T01:36:58.609Z,16.30
2018-02-16T01:39:25.200Z,15.30
2018-02-16T01:41:51.728Z,14.15
2018-02-16T01:44:18.171Z,15.40
2018-02-16T01:46:44.778Z,15.13
2018-02-16T01:49:11.350Z,14.70
2018-02-16T01:51:38.638Z,14.68
2018-02-16T01:54:05.939Z,16.23
2018-02-16T01:56:33.770Z,16.40
2018-02-16T01:59:00.392Z,14.30
2018-02-16T02:01:26.862Z,15.45
2018-02-16T02:03:53.435Z,14.02
2018-02-16T02:06:19.905Z,13.60
2018-02-16T02:08:46.472Z,13.55
2018-02-16T02:11:13.045Z,13.25
2018-02-16T02:13:39.580Z,12.77
2018-02-16T02:16:06.925Z,13.93
2018-02-16T02:18:34.283Z,14.70
2018-02-16T02:21:01.487Z,13.95
2018-02-16T02:23:27.914Z,13.62
2018-02-16T02:25:54.411Z,11.85
2018-02-16T02:28:21.002Z,9.90
2018-02-16T02:30:47.539Z,12.15
2018-02-16T02:33:14.192Z,9.65
2018-02-16T02:35:40.649Z,8.23
2018-02-16T02:38:07.962Z,6.75
2018-02-16T02:40:34.496Z,8.98
2018-02-16T02:43:01.110Z,6.35
2018-02-16T02:45:27.651Z,6.57
2018-02-16T02:47:54.167Z,9.10
2018-02-16T02:50:20.798Z,6.80
2018-02-16T02:52:47.322Z,7.12
2018-02-16T02:55:13.933Z,7.75
2018-02-16T02:57:40.491Z,7.80
2018-02-16T03:00:07.937Z,10.20
2018-02-16T03:02:35.179Z,10.85
2018-02-16T03:05:01.711Z,10.30
2018-02-16T03:07:28.118Z,6.53
2018-02-16T03:09:55.081Z,11.18
2018-02-16T03:12:21.621Z,7.68
2018-02-16T03:14:48.125Z,11.38
2018-02-16T03:17:14.611Z,9.70
2018-02-16T03:19:41.835Z,8.38
2018-02-16T03:22:08.309Z,10.88
2018-02-16T03:24:34.837Z,13.65
2018-02-16T03:27:01.351Z,13.60
2018-02-16T03:29:27.812Z,12.52
2018-02-16T03:31:54.310Z,13.98
2018-02-16T03:34:20.785Z,14.07
2018-02-16T03:36:47.260Z,14.00
2018-02-16T03:39:14.072Z,15.48
2018-02-16T03:41:40.578Z,13.25
2018-02-16T03:44:07.875Z,17.30
2018-02-16T03:46:34.601Z,11.05
2018-02-16T03:49:01.138Z,11.80
2018-02-16T03:51:27.672Z,11.60
2018-02-16T03:53:54.385Z,7.55
2018-02-16T03:56:20.933Z,12.55
2018-02-16T03:58:47.366Z,7.80
2018-02-16T04:01:14.033Z,12.18
2018-02-16T04:03:40.545Z,8.10
2018-02-16T04:06:07.053Z,9.30
2018-02-16T04:08:34.383Z,9.40
